sensor_id;sensor_type;location;lat;lon;timestamp;P1;durP1;ratioP1;P2;durP2;ratioP2
50932;SDS011;36921;49.006;9.292;2022-11-20T00:01:06;14.13;;;6.47;;
50932;SDS011;36921;49.006;9.292;2022-11-20T00:03:33;11.27;;;6.43;;
50932;SDS011;36921;49.006;9.292;2022-11-20T00:06:02;11.15;;;6.38;;
50932;SDS011;36921;49.006;9.292;2022-11-20T00:08:30;9.57;;;6.13;;
50932;SDS011;36921;49.006;9.292;2022-11-20T00:10:55;9.73;;;5.43;;
50932;SDS011;36921;49.006;9.292;2022-11-20T00:13:21;11.73;;;6.30;;
50932;SDS011;36921;49.006;9.292;2022-11-20T00:15:46;12.05;;;6.40;;
50932;SDS011;36921;49.006;9.292;2022-11-20T00:18:11;11.48;;;6.90;;
50932;SDS011;36921;49.006;9.292;2022-11-20T00:20:37;12.10;;;6.82;;
50932;SDS011;36921;49.006;9.292;2022-11-20T00:23:02;12.38;;;6.90;;
50932;SDS011;36921;49.006;9.292;2022-11-20T00:25:27;12.25;;;6.45;;
50932;SDS011;36921;49.006;9.292;2022-11-20T00:27:53;12.75;;;6.45;;
50932;SDS011;36921;49.006;9.292;2022-11-20T00:30:18;11.50;;;6.15;;
50932;SDS011;36921;49.006;9.292;2022-11-20T00:32:43;9.73;;;5.68;;
50932;SDS011;36921;49.006;9.292;2022-11-20T00:35:09;14.70;;;7.38;;
50932;SDS011;36921;49.006;9.292;2022-11-20T00:37:34;15.27;;;6.85;;
50932;SDS011;36921;49.006;9.292;2022-11-20T00:39:59;10.45;;;6.25;;
50932;SDS011;36921;49.006;9.292;2022-11-20T00:42:24;15.15;;;7.13;;
50932;SDS011;36921;49.006;9.292;2022-11-20T00:44:50;16.75;;;8.25;;
50932;SDS011;36921;49.006;9.292;2022-11-20T00:47:15;15.75;;;7.88;;
50932;SDS011;36921;49.006;9.292;2022-11-20T00:49:40;19.15;;;7.68;;
50932;SDS011;36921;49.006;9.292;2022-11-20T00:52:06;17.98;;;8.45;;
50932;SDS011;36921;49.006;9.292;2022-11-20T00:54:31;19.00;;;8.60;;
50932;SDS011;36921;49.006;9.292;2022-11-20T00:56:56;20.20;;;8.48;;
50932;SDS011;36921;49.006;9.292;2022-11-20T00:59:22;16.55;;;8.05;;
50932;SDS011;36921;49.006;9.292;2022-11-20T01:01:47;16.60;;;7.65;;
50932;SDS011;36921;49.006;9.292;2022-11-20T01:04:12;19.17;;;8.77;;
50932;SDS011;36921;49.006;9.292;2022-11-20T01:06:38;19.60;;;9.15;;
50932;SDS011;36921;49.006;9.292;2022-11-20T01:09:11;26.73;;;8.68;;
50932;SDS011;36921;49.006;9.292;2022-11-20T01:11:41;20.85;;;8.55;;
50932;SDS011;36921;49.006;9.292;2022-11-20T01:14:13;24.50;;;9.27;;
50932;SDS011;36921;49.006;9.292;2022-11-20T01:16:41;18.60;;;7.78;;
50932;SDS011;36921;49.006;9.292;2022-11-20T01:19:10;19.17;;;8.15;;
50932;SDS011;36921;49.006;9.292;2022-11-20T01:21:38;25.20;;;9.77;;
50932;SDS011;36921;49.006;9.292;2022-11-20T01:24:05;23.80;;;9.43;;
50932;SDS011;36921;49.006;9.292;2022-11-20T01:26:33;32.85;;;11.85;;
50932;SDS011;36921;49.006;9.292;2022-11-20T01:29:00;30.80;;;11.68;;
50932;SDS011;36921;49.006;9.292;2022-11-20T01:31:27;30.67;;;10.88;;
50932;SDS011;36921;49.006;9.292;2022-11-20T01:33:55;30.02;;;9.02;;
50932;SDS011;36921;49.006;9.292;2022-11-20T01:36:23;29.30;;;10.55;;
50932;SDS011;36921;49.006;9.292;2022-11-20T01:38:52;30.42;;;10.65;;
50932;SDS011;36921;49.006;9.292;2022-11-20T01:41:19;34.00;;;11.25;;
50932;SDS011;36921;49.006;9.292;2022-11-20T01:44:04;29.80;;;10.35;;
50932;SDS011;36921;49.006;9.292;2022-11-20T01:46:33;30.23;;;9.90;;
50932;SDS011;36921;49.006;9.292;2022-11-20T01:49:20;34.60;;;10.50;;
50932;SDS011;36921;49.006;9.292;2022-11-20T01:54:43;30.42;;;10.77;;
50932;SDS011;36921;49.006;9.292;2022-11-20T01:57:13;31.85;;;10.15;;
50932;SDS011;36921;49.006;9.292;2022-11-20T01:59:43;26.55;;;10.38;;
50932;SDS011;36921;49.006;9.292;2022-11-20T02:02:12;30.98;;;10.93;;
50932;SDS011;36921;49.006;9.292;2022-11-20T02:04:38;29.23;;;10.25;;
50932;SDS011;36921;49.006;9.292;2022-11-20T02:07:04;29.27;;;10.50;;
50932;SDS011;36921;49.006;9.292;2022-11-20T02:09:30;27.48;;;10.57;;
50932;SDS011;36921;49.006;9.292;2022-11-20T02:11:56;24.35;;;9.52;;
50932;SDS011;36921;49.006;9.292;2022-11-20T02:14:23;30.48;;;11.07;;
50932;SDS011;36921;49.006;9.292;2022-11-20T02:16:49;25.17;;;10.60;;
50932;SDS011;36921;49.006;9.292;2022-11-20T02:19:26;23.30;;;9.93;;
50932;SDS011;36921;49.006;9.292;2022-11-20T02:21:56;23.40;;;9.68;;
50932;SDS011;36921;49.006;9.292;2022-11-20T02:24:29;25.13;;;9.63;;
50932;SDS011;36921;49.006;9.292;2022-11-20T02:27:05;26.02;;;10.55;;
50932;SDS011;36921;49.006;9.292;2022-11-20T02:29:35;22.65;;;9.98;;
50932;SDS011;36921;49.006;9.292;2022-11-20T02:32:04;21.85;;;9.63;;
50932;SDS011;36921;49.006;9.292;2022-11-20T02:34:30;25.60;;;10.93;;
50932;SDS011;36921;49.006;9.292;2022-11-20T02:36:56;28.17;;;11.32;;
50932;SDS011;36921;49.006;9.292;2022-11-20T02:39:24;26.40;;;10.43;;
50932;SDS011;36921;49.006;9.292;2022-11-20T02:41:55;29.60;;;11.27;;
50932;SDS011;36921;49.006;9.292;2022-11-20T02:46:46;26.85;;;10.82;;
50932;SDS011;36921;49.006;9.292;2022-11-20T02:49:12;32.55;;;12.45;;
50932;SDS011;36921;49.006;9.292;2022-11-20T02:51:37;28.95;;;12.05;;
50932;SDS011;36921;49.006;9.292;2022-11-20T02:54:02;29.88;;;11.77;;
50932;SDS011;36921;49.006;9.292;2022-11-20T02:56:28;27.27;;;10.95;;
50932;SDS011;36921;49.006;9.292;2022-11-20T02:58:54;27.85;;;11.00;;
50932;SDS011;36921;49.006;9.292;2022-11-20T03:01:20;31.00;;;12.18;;
50932;SDS011;36921;49.006;9.292;2022-11-20T03:03:45;24.88;;;10.73;;
50932;SDS011;36921;49.006;9.292;2022-11-20T03:06:13;23.42;;;10.05;;
50932;SDS011;36921;49.006;9.292;2022-11-20T03:08:38;24.48;;;10.73;;
50932;SDS011;36921;49.006;9.292;2022-11-20T03:11:05;25.42;;;10.38;;
50932;SDS011;36921;49.006;9.292;2022-11-20T03:13:32;19.88;;;9.48;;
50932;SDS011;36921;49.006;9.292;2022-11-20T03:15:57;24.20;;;9.45;;
50932;SDS011;36921;49.006;9.292;2022-11-20T03:18:23;21.75;;;10.05;;
50932;SDS011;36921;49.006;9.292;2022-11-20T03:20:48;18.02;;;8.48;;
50932;SDS011;36921;49.006;9.292;2022-11-20T03:23:13;21.35;;;8.90;;
50932;SDS011;36921;49.006;9.292;2022-11-20T03:25:39;19.08;;;8.75;;
50932;SDS011;36921;49.006;9.292;2022-11-20T03:28:04;24.13;;;9.27;;
50932;SDS011;36921;49.006;9.292;2022-11-20T03:30:29;14.60;;;7.88;;
50932;SDS011;36921;49.006;9.292;2022-11-20T03:32:55;15.40;;;7.70;;
50932;SDS011;36921;49.006;9.292;2022-11-20T03:35:20;11.80;;;6.78;;
50932;SDS011;36921;49.006;9.292;2022-11-20T03:37:45;15.27;;;7.38;;
50932;SDS011;36921;49.006;9.292;2022-11-20T03:40:11;13.45;;;6.22;;
50932;SDS011;36921;49.006;9.292;2022-11-20T03:42:36;12.63;;;6.40;;
50932;SDS011;36921;49.006;9.292;2022-11-20T03:45:11;12.32;;;6.88;;
50932;SDS011;36921;49.006;9.292;2022-11-20T03:47:37;9.32;;;5.78;;
50932;SDS011;36921;49.006;9.292;2022-11-20T03:50:02;12.60;;;6.10;;
50932;SDS011;36921;49.006;9.292;2022-11-20T03:52:28;9.38;;;5.93;;
50932;SDS011;36921;49.006;9.292;2022-11-20T03:54:53;10.88;;;5.82;;
50932;SDS011;36921;49.006;9.292;2022-11-20T03:57:19;12.07;;;5.57;;
50932;SDS011;36921;49.006;9.292;2022-11-20T03:59:44;11.02;;;6.13;;
50932;SDS011;36921;49.006;9.292;2022-11-20T04:02:09;8.45;;;4.90;;
50932;SDS011;36921;49.006;9.292;2022-11-20T04:04:35;11.45;;;6.03;;
50932;SDS011;36921;49.006;9.292;2022-11-20T04:07:00;11.52;;;5.15;;
50932;SDS011;36921;49.006;9.292;2022-11-20T04:09:25;12.55;;;5.35;;
50932;SDS011;36921;49.006;9.292;2022-11-20T04:11:51;11.85;;;5.78;;
50932;SDS011;36921;49.006;9.292;2022-11-20T04:14:16;14.70;;;5.40;;
50932;SDS011;36921;49.006;9.292;2022-11-20T04:16:41;7.38;;;4.07;;
50932;SDS011;36921;49.006;9.292;2022-11-20T04:19:11;9.60;;;4.70;;
50932;SDS011;36921;49.006;9.292;2022-11-20T04:21:40;9.88;;;4.70;;
50932;SDS011;36921;49.006;9.292;2022-11-20T04:24:06;7.80;;;4.50;;
50932;SDS011;36921;49.006;9.292;2022-11-20T04:26:32;8.55;;;4.10;;
50932;SDS011;36921;49.006;9.292;2022-11-20T04:28:58;8.40;;;4.20;;
50932;SDS011;36921;49.006;9.292;2022-11-20T04:31:26;6.80;;;3.75;;
50932;SDS011;36921;49.006;9.292;2022-11-20T04:33:53;11.65;;;4.13;;
50932;SDS011;36921;49.006;9.292;2022-11-20T04:36:19;9.07;;;4.60;;
50932;SDS011;36921;49.006;9.292;2022-11-20T04:38:50;9.00;;;4.25;;
50932;SDS011;36921;49.006;9.292;2022-11-20T04:41:29;7.32;;;3.83;;
50932;SDS011;36921;49.006;9.292;2022-11-20T04:43:57;5.47;;;3.22;;
50932;SDS011;36921;49.006;9.292;2022-11-20T04:46:32;8.55;;;3.83;;
50932;SDS011;36921;49.006;9.292;2022-11-20T04:49:03;5.68;;;3.38;;
50932;SDS011;36921;49.006;9.292;2022-11-20T04:51:29;8.13;;;3.92;;
50932;SDS011;36921;49.006;9.292;2022-11-20T04:53:54;7.97;;;3.63;;
50932;SDS011;36921;49.006;9.292;2022-11-20T04:56:20;6.45;;;3.75;;
50932;SDS011;36921;49.006;9.292;2022-11-20T04:58:45;13.27;;;3.35;;
50932;SDS011;36921;49.006;9.292;2022-11-20T05:01:15;6.53;;;3.03;;
50932;SDS011;36921;49.006;9.292;2022-11-20T05:03:45;8.88;;;2.90;;
50932;SDS011;36921;49.006;9.292;2022-11-20T05:06:12;6.68;;;3.30;;
50932;SDS011;36921;49.006;9.292;2022-11-20T05:08:39;4.82;;;3.40;;
50932;SDS011;36921;49.006;9.292;2022-11-20T05:11:06;4.80;;;3.00;;
50932;SDS011;36921;49.006;9.292;2022-11-20T05:13:33;9.95;;;3.83;;
50932;SDS011;36921;49.006;9.292;2022-11-20T05:16:02;6.13;;;2.95;;
50932;SDS011;36921;49.006;9.292;2022-11-20T05:18:48;6.00;;;3.95;;
50932;SDS011;36921;49.006;9.292;2022-11-20T05:21:15;6.25;;;4.07;;
50932;SDS011;36921;49.006;9.292;2022-11-20T05:23:41;5.95;;;4.00;;
50932;SDS011;36921;49.006;9.292;2022-11-20T05:26:11;7.07;;;3.67;;
50932;SDS011;36921;49.006;9.292;2022-11-20T05:28:38;5.32;;;3.10;;
50932;SDS011;36921;49.006;9.292;2022-11-20T05:31:11;7.50;;;3.30;;
50932;SDS011;36921;49.006;9.292;2022-11-20T05:33:39;7.05;;;3.03;;
50932;SDS011;36921;49.006;9.292;2022-11-20T05:36:07;6.05;;;3.22;;
50932;SDS011;36921;49.006;9.292;2022-11-20T05:38:34;5.15;;;3.10;;
50932;SDS011;36921;49.006;9.292;2022-11-20T05:41:06;7.47;;;3.10;;
50932;SDS011;36921;49.006;9.292;2022-11-20T05:43:35;6.22;;;3.15;;
50932;SDS011;36921;49.006;9.292;2022-11-20T05:46:02;8.18;;;3.15;;
50932;SDS011;36921;49.006;9.292;2022-11-20T05:48:28;5.93;;;2.97;;
50932;SDS011;36921;49.006;9.292;2022-11-20T05:50:53;5.68;;;3.38;;
50932;SDS011;36921;49.006;9.292;2022-11-20T05:53:19;5.63;;;3.22;;
50932;SDS011;36921;49.006;9.292;2022-11-20T05:55:44;4.40;;;3.10;;
50932;SDS011;36921;49.006;9.292;2022-11-20T05:58:10;5.88;;;2.70;;
50932;SDS011;36921;49.006;9.292;2022-11-20T06:00:35;4.80;;;2.67;;
50932;SDS011;36921;49.006;9.292;2022-11-20T06:03:00;7.85;;;3.30;;
50932;SDS011;36921;49.006;9.292;2022-11-20T06:05:26;6.82;;;3.35;;
50932;SDS011;36921;49.006;9.292;2022-11-20T06:07:52;5.32;;;3.20;;
50932;SDS011;36921;49.006;9.292;2022-11-20T06:10:17;5.82;;;3.22;;
50932;SDS011;36921;49.006;9.292;2022-11-20T06:12:42;4.05;;;2.90;;
50932;SDS011;36921;49.006;9.292;2022-11-20T06:15:08;5.90;;;2.90;;
50932;SDS011;36921;49.006;9.292;2022-11-20T06:17:33;5.07;;;3.08;;
50932;SDS011;36921;49.006;9.292;2022-11-20T06:19:59;4.95;;;2.83;;
50932;SDS011;36921;49.006;9.292;2022-11-20T06:22:24;5.88;;;2.70;;
50932;SDS011;36921;49.006;9.292;2022-11-20T06:24:49;6.05;;;3.00;;
50932;SDS011;36921;49.006;9.292;2022-11-20T06:27:15;4.95;;;2.88;;
50932;SDS011;36921;49.006;9.292;2022-11-20T06:29:41;5.43;;;2.75;;
50932;SDS011;36921;49.006;9.292;2022-11-20T06:32:06;4.55;;;2.70;;
50932;SDS011;36921;49.006;9.292;2022-11-20T06:34:31;4.10;;;2.60;;
50932;SDS011;36921;49.006;9.292;2022-11-20T06:36:58;4.05;;;2.35;;
50932;SDS011;36921;49.006;9.292;2022-11-20T06:39:23;4.25;;;2.45;;
50932;SDS011;36921;49.006;9.292;2022-11-20T06:41:51;9.20;;;3.25;;
50932;SDS011;36921;49.006;9.292;2022-11-20T06:44:29;4.38;;;2.60;;
50932;SDS011;36921;49.006;9.292;2022-11-20T06:46:59;5.15;;;2.45;;
50932;SDS011;36921;49.006;9.292;2022-11-20T06:49:26;4.25;;;2.80;;
50932;SDS011;36921;49.006;9.292;2022-11-20T06:52:08;3.85;;;2.58;;
50932;SDS011;36921;49.006;9.292;2022-11-20T06:54:59;5.03;;;2.38;;
50932;SDS011;36921;49.006;9.292;2022-11-20T07:04:12;6.38;;;3.95;;
50932;SDS011;36921;49.006;9.292;2022-11-20T07:06:37;7.28;;;4.13;;
50932;SDS011;36921;49.006;9.292;2022-11-20T07:09:03;5.22;;;3.13;;
50932;SDS011;36921;49.006;9.292;2022-11-20T07:11:31;7.40;;;3.25;;
50932;SDS011;36921;49.006;9.292;2022-11-20T07:14:06;5.93;;;2.90;;
50932;SDS011;36921;49.006;9.292;2022-11-20T07:16:31;5.88;;;3.22;;
50932;SDS011;36921;49.006;9.292;2022-11-20T07:18:57;5.97;;;3.03;;
50932;SDS011;36921;49.006;9.292;2022-11-20T07:21:22;6.53;;;3.05;;
50932;SDS011;36921;49.006;9.292;2022-11-20T07:23:48;8.32;;;3.30;;
50932;SDS011;36921;49.006;9.292;2022-11-20T07:26:13;10.45;;;3.00;;
50932;SDS011;36921;49.006;9.292;2022-11-20T07:28:39;5.57;;;3.00;;
50932;SDS011;36921;49.006;9.292;2022-11-20T07:31:04;4.60;;;3.40;;
50932;SDS011;36921;49.006;9.292;2022-11-20T07:33:31;5.25;;;3.10;;
50932;SDS011;36921;49.006;9.292;2022-11-20T07:36:00;6.43;;;4.35;;
50932;SDS011;36921;49.006;9.292;2022-11-20T07:38:26;4.75;;;3.25;;
50932;SDS011;36921;49.006;9.292;2022-11-20T07:40:58;7.20;;;4.40;;
50932;SDS011;36921;49.006;9.292;2022-11-20T07:43:26;10.93;;;5.03;;
50932;SDS011;36921;49.006;9.292;2022-11-20T07:45:51;7.25;;;4.80;;
50932;SDS011;36921;49.006;9.292;2022-11-20T07:48:19;8.40;;;5.15;;
50932;SDS011;36921;49.006;9.292;2022-11-20T07:50:45;6.65;;;4.75;;
50932;SDS011;36921;49.006;9.292;2022-11-20T07:53:10;7.20;;;4.35;;
50932;SDS011;36921;49.006;9.292;2022-11-20T07:55:37;5.97;;;4.28;;
50932;SDS011;36921;49.006;9.292;2022-11-20T07:58:02;6.75;;;4.78;;
50932;SDS011;36921;49.006;9.292;2022-11-20T08:00:27;8.35;;;4.82;;
50932;SDS011;36921;49.006;9.292;2022-11-20T08:02:53;10.05;;;4.55;;
50932;SDS011;36921;49.006;9.292;2022-11-20T08:08:09;7.63;;;5.40;;
50932;SDS011;36921;49.006;9.292;2022-11-20T08:10:34;12.18;;;5.97;;
50932;SDS011;36921;49.006;9.292;2022-11-20T08:12:59;9.45;;;5.55;;
50932;SDS011;36921;49.006;9.292;2022-11-20T08:15:47;8.77;;;5.20;;
50932;SDS011;36921;49.006;9.292;2022-11-20T08:18:15;7.53;;;4.85;;
50932;SDS011;36921;49.006;9.292;2022-11-20T08:23:32;13.30;;;6.55;;
50932;SDS011;36921;49.006;9.292;2022-11-20T08:25:58;10.30;;;6.15;;
50932;SDS011;36921;49.006;9.292;2022-11-20T08:28:28;9.43;;;5.18;;
50932;SDS011;36921;49.006;9.292;2022-11-20T08:30:57;10.50;;;5.70;;
50932;SDS011;36921;49.006;9.292;2022-11-20T08:33:28;9.55;;;5.90;;
50932;SDS011;36921;49.006;9.292;2022-11-20T08:35:57;12.48;;;6.95;;
50932;SDS011;36921;49.006;9.292;2022-11-20T08:38:27;11.02;;;6.35;;
50932;SDS011;36921;49.006;9.292;2022-11-20T08:40:56;11.98;;;5.93;;
50932;SDS011;36921;49.006;9.292;2022-11-20T08:43:40;11.63;;;7.40;;
50932;SDS011;36921;49.006;9.292;2022-11-20T08:46:06;13.00;;;7.85;;
50932;SDS011;36921;49.006;9.292;2022-11-20T08:48:31;12.82;;;8.85;;
50932;SDS011;36921;49.006;9.292;2022-11-20T08:50:57;19.17;;;9.73;;
50932;SDS011;36921;49.006;9.292;2022-11-20T08:53:24;17.77;;;9.88;;
50932;SDS011;36921;49.006;9.292;2022-11-20T08:55:49;17.52;;;8.68;;
50932;SDS011;36921;49.006;9.292;2022-11-20T08:58:15;13.27;;;8.52;;
50932;SDS011;36921;49.006;9.292;2022-11-20T09:00:40;12.07;;;7.35;;
50932;SDS011;36921;49.006;9.292;2022-11-20T09:03:05;12.90;;;7.28;;
50932;SDS011;36921;49.006;9.292;2022-11-20T09:05:31;20.48;;;7.55;;
50932;SDS011;36921;49.006;9.292;2022-11-20T09:07:59;15.63;;;6.82;;
50932;SDS011;36921;49.006;9.292;2022-11-20T09:10:25;10.00;;;5.90;;
50932;SDS011;36921;49.006;9.292;2022-11-20T09:12:51;7.22;;;4.68;;
50932;SDS011;36921;49.006;9.292;2022-11-20T09:15:17;7.88;;;4.38;;
50932;SDS011;36921;49.006;9.292;2022-11-20T09:17:50;10.00;;;4.95;;
50932;SDS011;36921;49.006;9.292;2022-11-20T09:20:19;5.57;;;3.75;;
50932;SDS011;36921;49.006;9.292;2022-11-20T09:22:45;7.25;;;3.78;;
50932;SDS011;36921;49.006;9.292;2022-11-20T09:25:11;7.10;;;3.95;;
50932;SDS011;36921;49.006;9.292;2022-11-20T09:27:36;8.82;;;3.47;;
50932;SDS011;36921;49.006;9.292;2022-11-20T09:30:02;5.72;;;3.00;;
50932;SDS011;36921;49.006;9.292;2022-11-20T09:32:28;6.53;;;2.75;;
50932;SDS011;36921;49.006;9.292;2022-11-20T09:34:54;3.80;;;2.42;;
50932;SDS011;36921;49.006;9.292;2022-11-20T09:37:19;5.47;;;2.30;;
50932;SDS011;36921;49.006;9.292;2022-11-20T09:39:44;3.65;;;2.30;;
50932;SDS011;36921;49.006;9.292;2022-11-20T09:55:21;2.83;;;1.85;;
50932;SDS011;36921;49.006;9.292;2022-11-20T10:01:12;4.82;;;2.50;;
50932;SDS011;36921;49.006;9.292;2022-11-20T10:06:20;4.53;;;2.75;;
50932;SDS011;36921;49.006;9.292;2022-11-20T10:20:15;7.40;;;3.22;;
50932;SDS011;36921;49.006;9.292;2022-11-20T10:25:26;5.05;;;2.72;;
50932;SDS011;36921;49.006;9.292;2022-11-20T10:30:43;4.18;;;2.33;;
50932;SDS011;36921;49.006;9.292;2022-11-20T10:33:17;1.83;;;1.60;;
50932;SDS011;36921;49.006;9.292;2022-11-20T10:38:57;2.58;;;1.50;;
50932;SDS011;36921;49.006;9.292;2022-11-20T10:41:26;2.45;;;1.83;;
50932;SDS011;36921;49.006;9.292;2022-11-20T10:44:00;4.40;;;2.47;;
50932;SDS011;36921;49.006;9.292;2022-11-20T10:46:32;4.30;;;2.70;;
50932;SDS011;36921;49.006;9.292;2022-11-20T10:49:10;5.60;;;2.50;;
50932;SDS011;36921;49.006;9.292;2022-11-20T10:52:42;4.53;;;2.88;;
50932;SDS011;36921;49.006;9.292;2022-11-20T10:57:25;4.20;;;1.90;;
50932;SDS011;36921;49.006;9.292;2022-11-20T11:00:13;3.78;;;1.90;;
50932;SDS011;36921;49.006;9.292;2022-11-20T11:02:43;2.72;;;1.80;;
50932;SDS011;36921;49.006;9.292;2022-11-20T11:08:02;3.00;;;1.90;;
50932;SDS011;36921;49.006;9.292;2022-11-20T11:10:39;6.20;;;2.10;;
50932;SDS011;36921;49.006;9.292;2022-11-20T11:13:28;4.10;;;1.98;;
50932;SDS011;36921;49.006;9.292;2022-11-20T11:15:55;2.30;;;1.60;;
50932;SDS011;36921;49.006;9.292;2022-11-20T11:18:26;4.25;;;2.00;;
50932;SDS011;36921;49.006;9.292;2022-11-20T11:20:53;5.72;;;2.08;;
50932;SDS011;36921;49.006;9.292;2022-11-20T11:23:39;2.85;;;2.10;;
50932;SDS011;36921;49.006;9.292;2022-11-20T11:26:06;4.30;;;1.83;;
50932;SDS011;36921;49.006;9.292;2022-11-20T11:28:52;4.22;;;2.25;;
50932;SDS011;36921;49.006;9.292;2022-11-20T11:31:23;5.28;;;2.45;;
50932;SDS011;36921;49.006;9.292;2022-11-20T11:33:49;5.43;;;2.08;;
50932;SDS011;36921;49.006;9.292;2022-11-20T11:36:19;4.15;;;2.58;;
50932;SDS011;36921;49.006;9.292;2022-11-20T11:38:50;5.22;;;2.40;;
50932;SDS011;36921;49.006;9.292;2022-11-20T11:41:20;6.50;;;2.60;;
50932;SDS011;36921;49.006;9.292;2022-11-20T11:43:55;8.55;;;2.90;;
50932;SDS011;36921;49.006;9.292;2022-11-20T11:46:44;6.85;;;2.85;;
50932;SDS011;36921;49.006;9.292;2022-11-20T11:49:18;5.07;;;2.78;;
50932;SDS011;36921;49.006;9.292;2022-11-20T11:54:25;6.38;;;2.40;;
50932;SDS011;36921;49.006;9.292;2022-11-20T11:56:55;8.48;;;2.83;;
50932;SDS011;36921;49.006;9.292;2022-11-20T12:05:18;7.70;;;2.72;;
50932;SDS011;36921;49.006;9.292;2022-11-20T12:13:21;5.88;;;2.65;;
50932;SDS011;36921;49.006;9.292;2022-11-20T12:15:57;6.03;;;3.05;;
50932;SDS011;36921;49.006;9.292;2022-11-20T12:18:23;3.17;;;1.95;;
50932;SDS011;36921;49.006;9.292;2022-11-20T12:20:55;3.30;;;2.03;;
50932;SDS011;36921;49.006;9.292;2022-11-20T12:23:52;6.63;;;1.63;;
50932;SDS011;36921;49.006;9.292;2022-11-20T12:32:02;7.65;;;1.35;;
50932;SDS011;36921;49.006;9.292;2022-11-20T12:43:01;5.28;;;2.28;;
50932;SDS011;36921;49.006;9.292;2022-11-20T12:46:13;4.35;;;1.90;;
50932;SDS011;36921;49.006;9.292;2022-11-20T12:48:42;5.65;;;1.92;;
50932;SDS011;36921;49.006;9.292;2022-11-20T12:54:21;2.60;;;1.30;;
50932;SDS011;36921;49.006;9.292;2022-11-20T12:57:11;8.68;;;2.30;;
50932;SDS011;36921;49.006;9.292;2022-11-20T12:59:49;3.30;;;1.00;;
50932;SDS011;36921;49.006;9.292;2022-11-20T13:07:57;4.28;;;1.70;;
50932;SDS011;36921;49.006;9.292;2022-11-20T13:12:57;2.67;;;1.08;;
50932;SDS011;36921;49.006;9.292;2022-11-20T13:18:25;2.17;;;1.10;;
50932;SDS011;36921;49.006;9.292;2022-11-20T13:20:51;1.92;;;0.88;;
50932;SDS011;36921;49.006;9.292;2022-11-20T13:23:24;5.40;;;1.13;;
50932;SDS011;36921;49.006;9.292;2022-11-20T13:31:36;7.03;;;1.05;;
50932;SDS011;36921;49.006;9.292;2022-11-20T13:34:11;1.80;;;0.80;;
50932;SDS011;36921;49.006;9.292;2022-11-20T13:36:49;1.92;;;1.13;;
50932;SDS011;36921;49.006;9.292;2022-11-20T13:39:26;1.85;;;0.63;;
50932;SDS011;36921;49.006;9.292;2022-11-20T13:41:56;2.42;;;0.90;;
50932;SDS011;36921;49.006;9.292;2022-11-20T13:44:35;2.97;;;0.88;;
50932;SDS011;36921;49.006;9.292;2022-11-20T13:47:03;2.85;;;0.88;;
50932;SDS011;36921;49.006;9.292;2022-11-20T13:49:44;3.17;;;0.90;;
50932;SDS011;36921;49.006;9.292;2022-11-20T14:00:27;5.45;;;1.10;;
50932;SDS011;36921;49.006;9.292;2022-11-20T14:05:31;3.13;;;1.67;;
50932;SDS011;36921;49.006;9.292;2022-11-20T14:08:03;6.57;;;1.15;;
50932;SDS011;36921;49.006;9.292;2022-11-20T14:10:30;11.70;;;1.50;;
50932;SDS011;36921;49.006;9.292;2022-11-20T14:12:56;2.80;;;1.00;;
50932;SDS011;36921;49.006;9.292;2022-11-20T14:15:31;6.72;;;1.35;;
50932;SDS011;36921;49.006;9.292;2022-11-20T14:17:59;4.72;;;1.17;;
50932;SDS011;36921;49.006;9.292;2022-11-20T14:20:36;3.15;;;1.25;;
50932;SDS011;36921;49.006;9.292;2022-11-20T14:23:02;3.95;;;1.17;;
50932;SDS011;36921;49.006;9.292;2022-11-20T14:25:30;6.25;;;1.20;;
50932;SDS011;36921;49.006;9.292;2022-11-20T14:27:57;5.10;;;1.30;;
50932;SDS011;36921;49.006;9.292;2022-11-20T14:30:28;2.92;;;0.70;;
50932;SDS011;36921;49.006;9.292;2022-11-20T14:33:09;5.20;;;0.90;;
50932;SDS011;36921;49.006;9.292;2022-11-20T14:35:40;2.03;;;0.80;;
50932;SDS011;36921;49.006;9.292;2022-11-20T14:38:11;2.15;;;0.75;;
50932;SDS011;36921;49.006;9.292;2022-11-20T14:40:38;2.43;;;0.67;;
50932;SDS011;36921;49.006;9.292;2022-11-20T14:43:26;1.75;;;0.70;;
50932;SDS011;36921;49.006;9.292;2022-11-20T14:46:03;3.15;;;0.75;;
50932;SDS011;36921;49.006;9.292;2022-11-20T14:48:41;1.20;;;0.52;;
50932;SDS011;36921;49.006;9.292;2022-11-20T14:51:11;4.13;;;2.03;;
50932;SDS011;36921;49.006;9.292;2022-11-20T14:53:37;2.35;;;0.80;;
50932;SDS011;36921;49.006;9.292;2022-11-20T14:56:02;1.55;;;0.60;;
50932;SDS011;36921;49.006;9.292;2022-11-20T14:58:29;2.58;;;0.60;;
50932;SDS011;36921;49.006;9.292;2022-11-20T15:01:00;1.25;;;0.65;;
50932;SDS011;36921;49.006;9.292;2022-11-20T15:03:32;4.00;;;0.88;;
50932;SDS011;36921;49.006;9.292;2022-11-20T15:06:02;1.63;;;0.60;;
50932;SDS011;36921;49.006;9.292;2022-11-20T15:08:27;2.88;;;0.65;;
50932;SDS011;36921;49.006;9.292;2022-11-20T15:10:53;3.08;;;0.90;;
50932;SDS011;36921;49.006;9.292;2022-11-20T15:13:24;8.88;;;2.97;;
50932;SDS011;36921;49.006;9.292;2022-11-20T15:15:52;3.17;;;1.80;;
50932;SDS011;36921;49.006;9.292;2022-11-20T15:18:24;13.25;;;5.25;;
50932;SDS011;36921;49.006;9.292;2022-11-20T15:21:12;8.40;;;2.70;;
50932;SDS011;36921;49.006;9.292;2022-11-20T15:23:39;6.75;;;2.55;;
50932;SDS011;36921;49.006;9.292;2022-11-20T15:26:05;3.80;;;1.73;;
50932;SDS011;36921;49.006;9.292;2022-11-20T15:28:50;2.22;;;0.93;;
50932;SDS011;36921;49.006;9.292;2022-11-20T15:31:18;2.42;;;0.98;;
50932;SDS011;36921;49.006;9.292;2022-11-20T15:33:45;5.93;;;1.35;;
50932;SDS011;36921;49.006;9.292;2022-11-20T15:36:10;3.40;;;1.80;;
50932;SDS011;36921;49.006;9.292;2022-11-20T15:38:35;3.33;;;1.50;;
50932;SDS011;36921;49.006;9.292;2022-11-20T15:41:01;4.05;;;1.88;;
50932;SDS011;36921;49.006;9.292;2022-11-20T15:43:26;4.55;;;1.63;;
50932;SDS011;36921;49.006;9.292;2022-11-20T15:48:51;4.38;;;1.75;;
50932;SDS011;36921;49.006;9.292;2022-11-20T15:51:22;6.47;;;3.00;;
50932;SDS011;36921;49.006;9.292;2022-11-20T15:53:55;5.45;;;1.40;;
50932;SDS011;36921;49.006;9.292;2022-11-20T15:56:21;5.75;;;2.53;;
50932;SDS011;36921;49.006;9.292;2022-11-20T15:58:47;5.60;;;2.20;;
50932;SDS011;36921;49.006;9.292;2022-11-20T16:01:17;4.20;;;1.65;;
50932;SDS011;36921;49.006;9.292;2022-11-20T16:03:45;6.40;;;1.58;;
50932;SDS011;36921;49.006;9.292;2022-11-20T16:06:11;4.25;;;2.28;;
50932;SDS011;36921;49.006;9.292;2022-11-20T16:08:36;5.80;;;2.60;;
50932;SDS011;36921;49.006;9.292;2022-11-20T16:11:02;8.20;;;3.25;;
50932;SDS011;36921;49.006;9.292;2022-11-20T16:13:27;13.60;;;3.63;;
50932;SDS011;36921;49.006;9.292;2022-11-20T16:16:19;7.68;;;3.42;;
50932;SDS011;36921;49.006;9.292;2022-11-20T16:18:50;7.88;;;3.13;;
50932;SDS011;36921;49.006;9.292;2022-11-20T16:21:16;6.78;;;2.78;;
50932;SDS011;36921;49.006;9.292;2022-11-20T16:23:42;4.90;;;2.67;;
50932;SDS011;36921;49.006;9.292;2022-11-20T16:26:14;4.60;;;2.72;;
50932;SDS011;36921;49.006;9.292;2022-11-20T16:28:45;4.28;;;2.00;;
50932;SDS011;36921;49.006;9.292;2022-11-20T16:31:12;5.22;;;2.28;;
50932;SDS011;36921;49.006;9.292;2022-11-20T16:33:39;6.63;;;2.60;;
50932;SDS011;36921;49.006;9.292;2022-11-20T16:36:11;6.95;;;3.20;;
50932;SDS011;36921;49.006;9.292;2022-11-20T16:38:39;5.72;;;3.05;;
50932;SDS011;36921;49.006;9.292;2022-11-20T16:41:05;5.13;;;2.78;;
50932;SDS011;36921;49.006;9.292;2022-11-20T16:43:30;4.97;;;2.42;;
50932;SDS011;36921;49.006;9.292;2022-11-20T16:45:56;8.07;;;2.80;;
50932;SDS011;36921;49.006;9.292;2022-11-20T16:48:22;8.60;;;3.13;;
50932;SDS011;36921;49.006;9.292;2022-11-20T16:50:48;5.68;;;2.83;;
50932;SDS011;36921;49.006;9.292;2022-11-20T16:53:16;6.95;;;2.97;;
50932;SDS011;36921;49.006;9.292;2022-11-20T16:55:42;6.25;;;2.92;;